Time;durP1;ratioP1;P1;durP2;ratioP2;P2;SDS_P1;SDS_P2;PMS_P1;PMS_P2;Temp;Humidity;BMP_temperature;BMP_pressure;BME280_temperature;BME280_humidity;BME280_pressure;Samples;Min_cycle;Max_cycle;Signal;HPM_P1;HPM_P2
2021/06/04 00:01:24;;;;;;;16.92;4.30;;;;;;;;;;4959138;28;20551;-85
2021/06/04 00:03:52;;;;;;;15.90;5.05;;;;;;;;;;4946351;28;20037;-86
2021/06/04 00:06:19;;;;;;;19.27;4.90;;;;;;;;;;4929119;28;20039;-85
2021/06/04 00:08:49;;;;;;;18.88;4.43;;;;;;;;;;4946450;28;20145;-86
2021/06/04 00:11:25;;;;;;;15.45;4.45;;;;;;;;;;4928484;28;20090;-84
2021/06/04 00:13:54;;;;;;;17.88;4.53;;;;;;;;;;4916917;28;20161;-83
2021/06/04 00:16:41;;;;;;;18.52;4.63;;;;;;;;;;4928448;28;20024;-85
2021/06/04 00:19:09;;;;;;;;;;;;;;;;;;4927205;28;20051;-82
2021/06/04 00:21:38;;;;;;;16.92;4.97;;;;;;;;;;4924218;28;19910;-85
2021/06/04 00:24:07;;;;;;;22.45;4.55;;;;;;;;;;4913664;28;20076;-86
2021/06/04 00:26:37;;;;;;;15.85;4.30;;;;;;;;;;4935065;28;20128;-86
2021/06/04 00:29:09;;;;;;;15.38;4.53;;;;;;;;;;4930209;28;20161;-85
2021/06/04 00:31:36;;;;;;;17.10;4.10;;;;;;;;;;4938307;28;20019;-85
2021/06/04 00:34:06;;;;;;;19.05;4.47;;;;;;;;;;4931692;28;20031;-85
2021/06/04 00:36:35;;;;;;;14.20;4.13;;;;;;;;;;4938884;28;20351;-84
2021/06/04 00:39:08;;;;;;;19.13;4.60;;;;;;;;;;4920840;28;20127;-84
2021/06/04 00:41:39;;;;;;;17.73;4.15;;;;;;;;;;4936249;28;20031;-84
2021/06/04 00:44:07;;;;;;;14.85;4.25;;;;;;;;;;4941160;28;20043;-83
2021/06/04 00:46:34;;;;;;;14.05;4.28;;;;;;;;;;4935945;28;20024;-86
2021/06/04 00:49:01;;;;;;;16.05;4.50;;;;;;;;;;4934761;28;20062;-86
2021/06/04 00:51:47;;;;;;;18.35;4.60;;;;;;;;;;4935245;28;20023;-85
2021/06/04 00:54:16;;;;;;;16.80;4.67;;;;;;;;;;4935791;28;20027;-86
2021/06/04 00:56:46;;;;;;;15.85;4.20;;;;;;;;;;4952683;28;20278;-85
2021/06/04 00:59:23;;;;;;;17.83;4.78;;;;;;;;;;4938960;28;20109;-85
2021/06/04 01:01:53;;;;;;;14.32;4.22;;;;;;;;;;4937539;28;20039;-86
2021/06/04 01:04:24;;;;;;;18.60;4.25;;;;;;;;;;4957890;28;20030;-85
2021/06/04 01:07:09;;;;;;;19.05;4.95;;;;;;;;;;4948944;28;20051;-86
2021/06/04 01:09:43;;;;;;;14.98;4.28;;;;;;;;;;4960264;28;20477;-85
2021/06/04 01:12:10;;;;;;;13.50;4.32;;;;;;;;;;4974998;28;20118;-83
2021/06/04 01:14:45;;;;;;;17.58;4.60;;;;;;;;;;4963070;28;20034;-84
2021/06/04 01:17:29;;;;;;;15.35;4.22;;;;;;;;;;4954275;28;20029;-83
2021/06/04 01:29:13;;;;;;;18.27;4.60;;;;;;;;;;4955485;28;20046;-85
2021/06/04 01:31:42;;;;;;;15.13;4.32;;;;;;;;;;4978470;28;20035;-85
2021/06/04 01:34:40;;;;;;;14.38;4.53;;;;;;;;;;4949101;28;20029;-84
2021/06/04 01:37:27;;;;;;;15.35;4.45;;;;;;;;;;4897571;29;20608;-84
2021/06/04 01:39:57;;;;;;;15.20;4.80;;;;;;;;;;4894251;29;20036;-86
2021/06/04 01:42:27;;;;;;;17.85;4.95;;;;;;;;;;4899533;29;20086;-85
2021/06/04 01:44:56;;;;;;;16.65;4.80;;;;;;;;;;4878198;29;20024;-86
2021/06/04 01:47:43;;;;;;;18.58;4.93;;;;;;;;;;4877684;29;21036;-85
2021/06/04 01:50:15;;;;;;;16.65;5.28;;;;;;;;;;4880167;29;20029;-85
2021/06/04 01:52:44;;;;;;;18.15;4.93;;;;;;;;;;4882428;29;20231;-85
2021/06/04 01:55:12;;;;;;;17.67;5.40;;;;;;;;;;4897976;29;20036;-84
2021/06/04 01:57:45;;;;;;;17.80;5.13;;;;;;;;;;4885330;29;20119;-84
2021/06/04 02:00:35;;;;;;;18.42;5.35;;;;;;;;;;4880967;29;20047;-84
2021/06/04 02:03:03;;;;;;;17.67;5.20;;;;;;;;;;4894709;29;20566;-85
2021/06/04 02:05:33;;;;;;;15.00;5.07;;;;;;;;;;4884518;29;20721;-85
2021/06/04 02:08:02;;;;;;;15.82;5.20;;;;;;;;;;4878517;29;20179;-85
2021/06/04 02:10:38;;;;;;;15.52;5.13;;;;;;;;;;4902257;29;20976;-85
2021/06/04 02:13:09;;;;;;;16.67;5.13;;;;;;;;;;4919297;28;20049;-84
2021/06/04 02:15:38;;;;;;;17.58;4.93;;;;;;;;;;4969771;28;20054;-84
2021/06/04 02:18:08;;;;;;;18.33;5.28;;;;;;;;;;4952432;28;20178;-84
2021/06/04 02:20:37;;;;;;;19.83;5.45;;;;;;;;;;4953828;28;20026;-85
2021/06/04 02:23:23;;;;;;;16.20;5.07;;;;;;;;;;4966763;28;20047;-85
2021/06/04 02:26:00;;;;;;;14.73;5.07;;;;;;;;;;4973426;28;20050;-85
2021/06/04 02:28:38;;;;;;;17.73;5.45;;;;;;;;;;4953763;28;20331;-85
2021/06/04 02:31:27;;;;;;;18.35;5.30;;;;;;;;;;4951988;28;20039;-84
2021/06/04 02:34:12;;;;;;;19.05;5.65;;;;;;;;;;4954317;28;20511;-85
2021/06/04 02:36:46;;;;;;;18.08;5.13;;;;;;;;;;4957306;28;20031;-85
2021/06/04 02:39:21;;;;;;;16.73;4.88;;;;;;;;;;4958514;28;20049;-85
2021/06/04 02:42:10;;;;;;;20.30;5.05;;;;;;;;;;4968216;28;20035;-85
2021/06/04 02:45:00;;;;;;;17.80;5.40;;;;;;;;;;4970047;28;20112;-85
2021/06/04 02:47:30;;;;;;;14.48;5.07;;;;;;;;;;4977701;28;20359;-85
2021/06/04 02:50:08;;;;;;;17.85;5.13;;;;;;;;;;4967080;28;20101;-85
2021/06/04 02:52:44;;;;;;;17.42;5.28;;;;;;;;;;4958351;28;20075;-87
2021/06/04 02:55:14;;;;;;;24.95;4.78;;;;;;;;;;4956188;28;20030;-86
2021/06/04 02:57:41;;;;;;;16.67;4.72;;;;;;;;;;4972679;28;20177;-86
2021/06/04 03:00:38;;;;;;;17.52;4.78;;;;;;;;;;4974556;28;20125;-86
2021/06/04 03:03:06;;;;;;;18.05;5.40;;;;;;;;;;4964667;28;20706;-86
2021/06/04 03:05:34;;;;;;;19.23;4.78;;;;;;;;;;4974022;28;20608;-86
2021/06/04 03:08:03;;;;;;;17.70;4.95;;;;;;;;;;4975806;28;20061;-87
2021/06/04 03:10:31;;;;;;;15.52;4.45;;;;;;;;;;4961155;28;20049;-86
2021/06/04 03:12:59;;;;;;;16.20;4.97;;;;;;;;;;4974309;28;20038;-87
2021/06/04 03:15:38;;;;;;;18.40;4.90;;;;;;;;;;4953028;28;20065;-87
2021/06/04 03:18:07;;;;;;;17.90;5.20;;;;;;;;;;4956037;28;20060;-86
2021/06/04 03:20:36;;;;;;;17.48;4.40;;;;;;;;;;4975974;28;20081;-87
2021/06/04 03:23:04;;;;;;;19.92;5.43;;;;;;;;;;4974333;28;20040;-87
2021/06/04 03:25:33;;;;;;;20.13;5.05;;;;;;;;;;4960241;28;20038;-86
2021/06/04 03:28:03;;;;;;;14.02;5.03;;;;;;;;;;4957554;28;20648;-87
2021/06/04 03:30:33;;;;;;;21.65;5.93;;;;;;;;;;4978254;28;20039;-87
2021/06/04 03:33:00;;;;;;;23.67;6.00;;;;;;;;;;4970012;28;20039;-84
2021/06/04 03:35:29;;;;;;;20.13;5.90;;;;;;;;;;4970913;28;20038;-86
2021/06/04 03:37:56;;;;;;;23.67;6.47;;;;;;;;;;4934704;28;20049;-86
2021/06/04 03:40:24;;;;;;;17.90;5.80;;;;;;;;;;4954972;28;20430;-85
2021/06/04 03:42:51;;;;;;;21.02;5.80;;;;;;;;;;4954796;28;20109;-86
2021/06/04 03:45:22;;;;;;;20.15;5.78;;;;;;;;;;4958799;28;20117;-85
2021/06/04 03:47:51;;;;;;;18.90;5.25;;;;;;;;;;4954037;28;20034;-86
2021/06/04 03:50:17;;;;;;;21.23;6.10;;;;;;;;;;4955614;28;20468;-86
2021/06/04 03:52:44;;;;;;;24.35;5.63;;;;;;;;;;4954428;28;20023;-84
2021/06/04 03:55:13;;;;;;;20.85;5.88;;;;;;;;;;4963461;28;20081;-86
2021/06/04 03:57:50;;;;;;;18.08;5.25;;;;;;;;;;4957950;28;20039;-86
2021/06/04 04:00:20;;;;;;;19.10;5.57;;;;;;;;;;4962365;28;20026;-86
2021/06/04 04:02:47;;;;;;;21.42;5.30;;;;;;;;;;4954455;28;20041;-85
2021/06/04 04:05:13;;;;;;;17.23;5.15;;;;;;;;;;4956314;28;20026;-86
2021/06/04 04:07:42;;;;;;;21.85;5.78;;;;;;;;;;4959273;28;20486;-86
2021/06/04 04:10:13;;;;;;;20.95;6.15;;;;;;;;;;4964495;28;20070;-86
2021/06/04 04:12:41;;;;;;;17.95;5.50;;;;;;;;;;4981433;28;20078;-86
2021/06/04 04:15:17;;;;;;;21.58;6.05;;;;;;;;;;4978095;28;20029;-86
2021/06/04 04:17:44;;;;;;;20.27;5.45;;;;;;;;;;4983446;28;20042;-85
2021/06/04 04:20:12;;;;;;;19.80;5.97;;;;;;;;;;4982850;28;20041;-84
2021/06/04 04:22:39;;;;;;;19.73;5.25;;;;;;;;;;4962318;28;20126;-85
2021/06/04 04:25:08;;;;;;;18.98;5.22;;;;;;;;;;4960808;28;20149;-86
2021/06/04 04:27:39;;;;;;;16.45;5.32;;;;;;;;;;4963260;28;20646;-85
2021/06/04 04:30:07;;;;;;;20.00;5.30;;;;;;;;;;4977251;28;20912;-85
2021/06/04 04:32:35;;;;;;;19.48;5.15;;;;;;;;;;4981377;28;20026;-86
2021/06/04 04:35:02;;;;;;;16.67;5.10;;;;;;;;;;4982639;28;20022;-84
2021/06/04 04:37:30;;;;;;;17.85;5.18;;;;;;;;;;4961607;28;20076;-85
2021/06/04 04:39:58;;;;;;;15.95;4.90;;;;;;;;;;4979923;28;20069;-86
2021/06/04 04:42:25;;;;;;;17.50;5.32;;;;;;;;;;4981894;28;20176;-86
2021/06/04 04:44:54;;;;;;;21.80;6.03;;;;;;;;;;4974654;28;20023;-85
2021/06/04 04:47:23;;;;;;;16.92;5.78;;;;;;;;;;4957944;28;20070;-86
2021/06/04 04:49:50;;;;;;;17.88;5.45;;;;;;;;;;4953980;28;20502;-86
2021/06/04 04:52:24;;;;;;;16.70;5.38;;;;;;;;;;4960771;28;20027;-86
2021/06/04 04:54:55;;;;;;;18.48;5.30;;;;;;;;;;4957807;28;20125;-86
2021/06/04 04:57:22;;;;;;;16.92;4.78;;;;;;;;;;4964047;28;20045;-86
2021/06/04 04:59:48;;;;;;;23.23;5.45;;;;;;;;;;4957917;28;20095;-86
2021/06/04 05:02:16;;;;;;;15.40;4.63;;;;;;;;;;4958943;28;20050;-86
2021/06/04 05:04:43;;;;;;;14.15;4.45;;;;;;;;;;4944041;28;20640;-86
2021/06/04 05:07:10;;;;;;;15.30;4.93;;;;;;;;;;4956231;28;20177;-87
2021/06/04 05:09:37;;;;;;;13.57;4.50;;;;;;;;;;4959294;28;20086;-86
2021/06/04 05:12:05;;;;;;;12.57;4.13;;;;;;;;;;4946738;28;20075;-86
2021/06/04 05:14:32;;;;;;;13.38;4.30;;;;;;;;;;4960421;28;20030;-86
2021/06/04 05:17:00;;;;;;;14.18;3.92;;;;;;;;;;4958353;28;20026;-86
2021/06/04 05:19:28;;;;;;;12.60;4.03;;;;;;;;;;4941903;28;20027;-86
2021/06/04 05:21:55;;;;;;;13.52;4.00;;;;;;;;;;4940367;28;20033;-86
2021/06/04 05:24:22;;;;;;;12.02;3.40;;;;;;;;;;4945279;28;20031;-85
2021/06/04 05:26:49;;;;;;;12.05;4.75;;;;;;;;;;4939465;28;20081;-85
2021/06/04 05:29:17;;;;;;;11.30;3.80;;;;;;;;;;4960516;28;20557;-86
2021/06/04 05:31:45;;;;;;;11.82;3.35;;;;;;;;;;4958506;28;20462;-85
2021/06/04 05:34:12;;;;;;;10.88;3.15;;;;;;;;;;4960708;28;20053;-86
2021/06/04 05:36:39;;;;;;;11.27;3.70;;;;;;;;;;4941429;28;20043;-85
2021/06/04 05:39:15;;;;;;;9.50;3.00;;;;;;;;;;4958369;28;20034;-85
2021/06/04 05:41:45;;;;;;;13.25;2.88;;;;;;;;;;4977400;28;20117;-86
2021/06/04 05:47:16;;;;;;;13.18;3.50;;;;;;;;;;4973213;28;20118;-87
2021/06/04 05:49:47;;;;;;;10.10;2.80;;;;;;;;;;4979314;28;20038;-85
2021/06/04 05:52:15;;;;;;;12.00;3.20;;;;;;;;;;4974355;28;20077;-84
2021/06/04 05:54:44;;;;;;;9.98;2.45;;;;;;;;;;4961370;28;20026;-86
2021/06/04 05:57:13;;;;;;;9.93;3.00;;;;;;;;;;4976147;28;20058;-84
2021/06/04 05:59:40;;;;;;;11.23;2.97;;;;;;;;;;4971181;28;20041;-82
2021/06/04 06:02:09;;;;;;;10.52;3.17;;;;;;;;;;4972260;28;20616;-86
2021/06/04 06:04:37;;;;;;;8.63;2.65;;;;;;;;;;4961268;28;20030;-85
2021/06/04 06:07:04;;;;;;;10.52;3.15;;;;;;;;;;4973763;28;20027;-85
2021/06/04 06:09:30;;;;;;;12.13;3.08;;;;;;;;;;4959685;28;20773;-86
2021/06/04 06:11:57;;;;;;;10.88;3.35;;;;;;;;;;4951870;28;20054;-85
2021/06/04 06:14:25;;;;;;;9.75;3.00;;;;;;;;;;4959342;28;20034;-84
2021/06/04 06:16:51;;;;;;;12.05;3.00;;;;;;;;;;4962684;28;20034;-80
2021/06/04 06:19:23;;;;;;;11.07;3.20;;;;;;;;;;4950045;28;20030;-79
2021/06/04 06:22:15;;;;;;;10.68;2.95;;;;;;;;;;4942387;28;20039;-79
2021/06/04 06:24:43;;;;;;;12.75;3.05;;;;;;;;;;4965156;28;20095;-80
2021/06/04 06:27:09;;;;;;;11.82;3.10;;;;;;;;;;4961428;28;20046;-79
2021/06/04 06:29:37;;;;;;;12.60;3.17;;;;;;;;;;4970190;28;20040;-79
2021/06/04 06:32:05;;;;;;;9.20;2.63;;;;;;;;;;4960360;28;20425;-79
2021/06/04 06:34:35;;;;;;;10.48;3.03;;;;;;;;;;4964790;28;20506;-80
2021/06/04 06:37:03;;;;;;;12.60;3.42;;;;;;;;;;4960700;28;20038;-83
2021/06/04 06:39:35;;;;;;;10.52;3.25;;;;;;;;;;4967689;28;20200;-78
2021/06/04 06:42:05;;;;;;;12.05;3.17;;;;;;;;;;4961419;28;20027;-79
2021/06/04 06:44:32;;;;;;;10.27;3.17;;;;;;;;;;4965048;28;20030;-81
2021/06/04 06:46:59;;;;;;;11.95;3.17;;;;;;;;;;4944907;28;20813;-80
2021/06/04 06:49:28;;;;;;;11.80;3.20;;;;;;;;;;4967546;28;20049;-80
2021/06/04 06:51:54;;;;;;;11.48;3.20;;;;;;;;;;4959463;28;20100;-81
2021/06/04 06:54:25;;;;;;;10.88;3.42;;;;;;;;;;4963787;28;20038;-78
2021/06/04 06:56:53;;;;;;;12.13;2.92;;;;;;;;;;4944275;28;20039;-82
2021/06/04 06:59:21;;;;;;;11.75;3.30;;;;;;;;;;4967031;28;20101;-79
2021/06/04 07:01:49;;;;;;;12.98;2.97;;;;;;;;;;4962245;28;20058;-79
2021/06/04 07:04:18;;;;;;;9.18;3.00;;;;;;;;;;4964210;28;20065;-81
2021/06/04 07:06:45;;;;;;;10.25;3.22;;;;;;;;;;4967393;28;20103;-79
2021/06/04 07:09:15;;;;;;;12.45;3.50;;;;;;;;;;4964429;28;20127;-79
2021/06/04 07:11:44;;;;;;;12.32;3.53;;;;;;;;;;4947643;28;20137;-79
2021/06/04 07:14:12;;;;;;;11.18;3.55;;;;;;;;;;4961586;28;20034;-79
2021/06/04 07:16:41;;;;;;;10.50;3.17;;;;;;;;;;4930448;28;20046;-80
2021/06/04 07:19:08;;;;;;;11.50;3.40;;;;;;;;;;4961693;28;20034;-81
2021/06/04 07:24:33;;;;;;;12.82;3.70;;;;;;;;;;4964301;28;20057;-79
2021/06/04 07:27:02;;;;;;;16.55;3.67;;;;;;;;;;4963350;28;20711;-80
2021/06/04 07:29:31;;;;;;;11.63;3.90;;;;;;;;;;4933625;28;20041;-79
2021/06/04 07:32:00;;;;;;;14.30;4.28;;;;;;;;;;4957953;28;20573;-79
2021/06/04 07:34:29;;;;;;;12.60;4.40;;;;;;;;;;4951601;28;20034;-78
2021/06/04 07:36:57;;;;;;;11.73;3.60;;;;;;;;;;4960799;28;20096;-79
2021/06/04 07:39:28;;;;;;;16.65;4.00;;;;;;;;;;4952839;28;20140;-78
2021/06/04 07:41:55;;;;;;;12.32;3.78;;;;;;;;;;4962041;28;20057;-79
2021/06/04 07:44:23;;;;;;;10.65;3.40;;;;;;;;;;4962999;28;20033;-79
2021/06/04 07:46:51;;;;;;;12.50;2.97;;;;;;;;;;4966805;28;20046;-79
2021/06/04 07:49:18;;;;;;;11.68;2.90;;;;;;;;;;4944981;28;20045;-80
2021/06/04 07:51:50;;;;;;;9.48;2.55;;;;;;;;;;4951883;28;20561;-80
2021/06/04 07:54:19;;;;;;;11.23;2.92;;;;;;;;;;4953111;28;20130;-79
2021/06/04 07:57:10;;;;;;;11.13;2.63;;;;;;;;;;4945207;28;20044;-78
2021/06/04 08:00:01;;;;;;;12.43;3.35;;;;;;;;;;4959999;28;20034;-80
2021/06/04 08:02:31;;;;;;;10.50;3.20;;;;;;;;;;4967468;28;20027;-82
2021/06/04 08:05:02;;;;;;;9.32;2.45;;;;;;;;;;4960154;28;20034;-82
2021/06/04 08:07:31;;;;;;;10.57;2.88;;;;;;;;;;4968290;28;20053;-83
2021/06/04 08:10:00;;;;;;;10.43;2.53;;;;;;;;;;4962950;28;20043;-83
2021/06/04 08:12:32;;;;;;;11.75;3.13;;;;;;;;;;4960510;28;20030;-83
2021/06/04 08:15:01;;;;;;;10.43;2.80;;;;;;;;;;4947363;28;20133;-83
2021/06/04 08:17:29;;;;;;;11.43;2.95;;;;;;;;;;4967392;28;20031;-83
2021/06/04 08:19:55;;;;;;;10.10;2.63;;;;;;;;;;4947346;28;20522;-83
2021/06/04 08:25:13;;;;;;;10.57;2.50;;;;;;;;;;4973685;28;20073;-83
2021/06/04 08:27:40;;;;;;;20.90;3.67;;;;;;;;;;4967241;28;20041;-82
2021/06/04 08:30:08;;;;;;;12.25;4.35;;;;;;;;;;4962492;28;20022;-83
2021/06/04 08:32:42;;;;;;;13.25;2.88;;;;;;;;;;4951410;28;20061;-82
2021/06/04 08:35:11;;;;;;;11.30;4.53;;;;;;;;;;4940332;28;20481;-81
2021/06/04 08:37:39;;;;;;;12.48;4.38;;;;;;;;;;4966338;28;20046;-81
2021/06/04 08:40:08;;;;;;;11.40;4.40;;;;;;;;;;4965565;28;20053;-82
2021/06/04 08:42:36;;;;;;;14.75;3.45;;;;;;;;;;4963439;28;20081;-84
2021/06/04 08:45:21;;;;;;;12.15;3.65;;;;;;;;;;4945782;28;20749;-82
2021/06/04 08:47:51;;;;;;;12.13;3.50;;;;;;;;;;4939114;28;20033;-82
2021/06/04 08:50:38;;;;;;;14.70;3.50;;;;;;;;;;4966997;28;20712;-84
2021/06/04 08:53:27;;;;;;;12.93;3.80;;;;;;;;;;4962264;28;20041;-83
2021/06/04 09:02:10;;;;;;;10.98;3.35;;;;;;;;;;4967503;28;20053;-81
2021/06/04 09:05:01;;;;;;;13.02;3.13;;;;;;;;;;4966469;28;20125;-81
2021/06/04 09:07:36;;;;;;;12.73;2.88;;;;;;;;;;4970045;28;20037;-80
2021/06/04 09:10:10;;;;;;;11.95;3.20;;;;;;;;;;4964634;28;20042;-81
2021/06/04 09:13:03;;;;;;;14.23;3.70;;;;;;;;;;4967220;28;20238;-80
2021/06/04 09:15:32;;;;;;;11.23;2.83;;;;;;;;;;4967528;28;20030;-80
2021/06/04 09:18:01;;;;;;;12.45;2.83;;;;;;;;;;4960946;28;20039;-81
2021/06/04 09:20:46;;;;;;;10.93;3.03;;;;;;;;;;4971474;28;20021;-80
2021/06/04 09:23:16;;;;;;;13.63;3.10;;;;;;;;;;4953518;28;20081;-81
2021/06/04 09:25:43;;;;;;;11.90;2.72;;;;;;;;;;4968385;28;20070;-79
2021/06/04 09:28:11;;;;;;;12.45;3.47;;;;;;;;;;4965672;28;20301;-79
2021/06/04 09:33:45;;;;;;;15.57;3.40;;;;;;;;;;4968911;28;20173;-79
2021/06/04 09:36:18;;;;;;;18.45;3.67;;;;;;;;;;4964285;28;20192;-81
2021/06/04 09:38:46;;;;;;;10.38;3.40;;;;;;;;;;4967682;28;20034;-80
2021/06/04 09:41:25;;;;;;;12.15;3.53;;;;;;;;;;4969183;28;20109;-80
2021/06/04 09:44:05;;;;;;;12.75;3.50;;;;;;;;;;4964812;28;20105;-81
2021/06/04 09:46:52;;;;;;;13.93;3.20;;;;;;;;;;4948885;28;20780;-82
2021/06/04 09:49:27;;;;;;;10.57;3.15;;;;;;;;;;4954166;28;20486;-82
2021/06/04 09:52:04;;;;;;;12.07;2.75;;;;;;;;;;4962303;28;20647;-82
2021/06/04 09:54:33;;;;;;;10.90;3.25;;;;;;;;;;4973689;28;20029;-80
2021/06/04 09:57:11;;;;;;;12.90;3.47;;;;;;;;;;4966757;28;20062;-79
2021/06/04 09:59:39;;;;;;;12.32;3.30;;;;;;;;;;4966930;28;20030;-80
2021/06/04 10:02:29;;;;;;;11.70;3.50;;;;;;;;;;4946070;28;20141;-81
2021/06/04 10:05:32;;;;;;;11.88;3.30;;;;;;;;;;4960633;28;20043;-80
2021/06/04 10:08:04;;;;;;;13.90;3.38;;;;;;;;;;4887381;29;20050;-81
2021/06/04 10:10:55;;;;;;;12.50;3.25;;;;;;;;;;4907845;29;20068;-82
2021/06/04 10:13:46;;;;;;;11.88;3.45;;;;;;;;;;4894408;29;20530;-83
2021/06/04 10:16:58;;;;;;;11.07;3.15;;;;;;;;;;4912675;29;20028;-82
2021/06/04 10:19:46;;;;;;;10.98;2.80;;;;;;;;;;4906686;29;20549;-82
2021/06/04 10:22:19;;;;;;;10.20;2.85;;;;;;;;;;4872418;29;20056;-83
2021/06/04 10:24:55;;;;;;;14.45;3.97;;;;;;;;;;4857624;29;20040;-80
2021/06/04 10:27:31;;;;;;;16.52;4.93;;;;;;;;;;4857110;29;20032;-80
2021/06/04 10:30:00;;;;;;;12.55;3.20;;;;;;;;;;4871266;29;20036;-80
2021/06/04 10:32:59;;;;;;;10.57;3.45;;;;;;;;;;4861762;29;20054;-82
2021/06/04 10:35:31;;;;;;;13.55;3.10;;;;;;;;;;4857352;29;20117;-79
2021/06/04 10:38:07;;;;;;;11.75;4.65;;;;;;;;;;4854546;29;20192;-81
2021/06/04 10:40:37;;;;;;;11.52;3.45;;;;;;;;;;4872375;29;20088;-82
2021/06/04 10:43:21;;;;;;;12.25;3.42;;;;;;;;;;4872734;28;20198;-82
2021/06/04 10:46:10;;;;;;;13.20;3.20;;;;;;;;;;4912527;28;20102;-82
2021/06/04 10:49:02;;;;;;;13.05;3.78;;;;;;;;;;4912232;28;20074;-82
2021/06/04 10:51:55;;;;;;;11.23;4.35;;;;;;;;;;4928933;28;20043;-82
2021/06/04 10:54:25;;;;;;;13.10;3.83;;;;;;;;;;4936714;28;20684;-82
2021/06/04 10:57:05;;;;;;;12.13;4.60;;;;;;;;;;4922351;28;20039;-81
2021/06/04 10:59:41;;;;;;;12.13;3.13;;;;;;;;;;4928980;28;20050;-82
2021/06/04 11:02:27;;;;;;;12.07;3.28;;;;;;;;;;4910795;28;20562;-82
2021/06/04 11:05:14;;;;;;;12.73;4.22;;;;;;;;;;4926513;28;20050;-81
2021/06/04 11:07:49;;;;;;;14.00;3.67;;;;;;;;;;4943084;28;20081;-82
2021/06/04 11:13:30;;;;;;;13.32;4.40;;;;;;;;;;4964830;28;20563;-82
2021/06/04 11:16:13;;;;;;;12.98;5.28;;;;;;;;;;4957657;28;20022;-81
2021/06/04 11:18:48;;;;;;;11.57;3.70;;;;;;;;;;4965888;28;20138;-82
2021/06/04 11:21:36;;;;;;;12.77;3.50;;;;;;;;;;4965086;28;20060;-81
2021/06/04 11:24:27;;;;;;;12.60;2.92;;;;;;;;;;4962838;28;20043;-81
2021/06/04 11:26:54;;;;;;;22.98;10.82;;;;;;;;;;4963530;28;20031;-81
2021/06/04 11:29:23;;;;;;;19.42;8.15;;;;;;;;;;4949196;28;20062;-82
2021/06/04 11:32:13;;;;;;;15.80;6.53;;;;;;;;;;4963869;28;20049;-81
2021/06/04 11:34:59;;;;;;;14.07;4.88;;;;;;;;;;4952538;28;20042;-82
2021/06/04 11:37:31;;;;;;;16.08;6.05;;;;;;;;;;4965368;28;20031;-81
2021/06/04 11:40:16;;;;;;;17.27;6.65;;;;;;;;;;4960677;28;20057;-82
2021/06/04 11:42:54;;;;;;;14.20;4.15;;;;;;;;;;4966079;28;20113;-81
2021/06/04 11:48:31;;;;;;;47.33;29.10;;;;;;;;;;4954127;28;20049;-81
2021/06/04 11:51:18;;;;;;;14.05;4.28;;;;;;;;;;4948598;28;20127;-81
2021/06/04 11:53:49;;;;;;;31.63;4.90;;;;;;;;;;4953466;28;20477;-82
2021/06/04 11:56:35;;;;;;;14.00;3.33;;;;;;;;;;4967943;28;20065;-82
2021/06/04 11:59:02;;;;;;;;;;;;;;;;;;4965427;28;20025;-81
2021/06/04 12:01:33;;;;;;;30.55;4.75;;;;;;;;;;4953519;28;19932;-81
2021/06/04 12:04:09;;;;;;;22.15;4.90;;;;;;;;;;4967728;28;20053;-82
2021/06/04 12:06:47;;;;;;;39.55;5.22;;;;;;;;;;4970675;28;20057;-82
2021/06/04 12:09:32;;;;;;;17.38;3.47;;;;;;;;;;4966653;28;20109;-82
2021/06/04 12:12:20;;;;;;;14.20;3.50;;;;;;;;;;4962248;28;20022;-82
2021/06/04 12:14:58;;;;;;;14.50;3.65;;;;;;;;;;4964020;28;20453;-81
2021/06/04 12:17:25;;;;;;;24.15;4.93;;;;;;;;;;4969761;28;20023;-81
2021/06/04 12:20:14;;;;;;;21.70;8.57;;;;;;;;;;4944844;28;20086;-82
2021/06/04 12:22:46;;;;;;;59.38;41.58;;;;;;;;;;4969050;28;20072;-88
2021/06/04 12:25:50;;;;;;;16.08;3.80;;;;;;;;;;4966112;28;20145;-83
2021/06/04 12:28:41;;;;;;;15.00;3.30;;;;;;;;;;4965767;28;20290;-83
2021/06/04 12:31:32;;;;;;;10.35;3.22;;;;;;;;;;4969246;28;20105;-85
2021/06/04 12:34:01;;;;;;;14.77;4.22;;;;;;;;;;4970481;28;20050;-84
2021/06/04 12:36:32;;;;;;;13.75;4.43;;;;;;;;;;4951699;28;20133;-84
2021/06/04 12:39:17;;;;;;;16.83;5.50;;;;;;;;;;4950482;28;20063;-84
2021/06/04 12:41:46;;;;;;;15.32;4.57;;;;;;;;;;4967196;28;20031;-83
2021/06/04 12:44:16;;;;;;;14.23;4.28;;;;;;;;;;4971466;28;20045;-84
2021/06/04 12:46:48;;;;;;;19.52;5.03;;;;;;;;;;4968543;28;20084;-84
2021/06/04 12:49:18;;;;;;;18.45;5.28;;;;;;;;;;4974733;28;20038;-83
2021/06/04 12:51:47;;;;;;;13.50;4.50;;;;;;;;;;4957635;28;20034;-84
2021/06/04 12:54:26;;;;;;;19.52;5.10;;;;;;;;;;4976743;28;20045;-84
2021/06/04 12:56:55;;;;;;;16.08;5.13;;;;;;;;;;4975405;28;20038;-85
2021/06/04 12:59:50;;;;;;;15.90;5.45;;;;;;;;;;4972666;28;20065;-84
2021/06/04 13:02:22;;;;;;;16.88;6.10;;;;;;;;;;4975557;28;20048;-84
2021/06/04 13:04:50;;;;;;;16.60;6.03;;;;;;;;;;4961206;28;20034;-84
2021/06/04 13:07:31;;;;;;;20.73;6.20;;;;;;;;;;4958726;28;20038;-85
2021/06/04 13:10:21;;;;;;;21.73;5.68;;;;;;;;;;4949328;28;20047;-84
2021/06/04 13:12:53;;;;;;;21.58;6.25;;;;;;;;;;4931974;28;20489;-85
2021/06/04 13:15:26;;;;;;;19.48;5.43;;;;;;;;;;4950462;28;20759;-85
2021/06/04 13:17:57;;;;;;;20.45;5.85;;;;;;;;;;4935711;28;20034;-85
2021/06/04 13:20:35;;;;;;;17.05;5.78;;;;;;;;;;4936541;28;20074;-85
2021/06/04 13:23:28;;;;;;;22.33;6.53;;;;;;;;;;4952018;28;20031;-84
2021/06/04 13:26:22;;;;;;;21.77;6.38;;;;;;;;;;4949188;28;20038;-84
2021/06/04 13:28:51;;;;;;;18.70;5.97;;;;;;;;;;4935756;28;20462;-84
2021/06/04 13:31:43;;;;;;;21.63;6.15;;;;;;;;;;4939772;28;20050;-85
2021/06/04 13:34:34;;;;;;;20.88;5.72;;;;;;;;;;4947095;28;20042;-85
2021/06/04 13:37:01;;;;;;;22.10;6.35;;;;;;;;;;4933657;28;20045;-85
2021/06/04 13:39:35;;;;;;;19.13;7.05;;;;;;;;;;4934316;28;20078;-85
2021/06/04 13:42:26;;;;;;;16.13;6.47;;;;;;;;;;4947843;28;20094;-85
2021/06/04 13:44:53;;;;;;;19.05;6.38;;;;;;;;;;4940324;28;20109;-85
2021/06/04 13:47:33;;;;;;;21.17;6.20;;;;;;;;;;4936547;28;20047;-83
2021/06/04 13:50:14;;;;;;;19.10;6.00;;;;;;;;;;4947776;28;20054;-85
2021/06/04 13:52:59;;;;;;;21.60;6.80;;;;;;;;;;4935634;28;20039;-85
2021/06/04 13:55:26;;;;;;;22.23;7.05;;;;;;;;;;4935004;28;20499;-79
2021/06/04 13:57:52;;;;;;;22.05;6.55;;;;;;;;;;4923761;28;20028;-79
2021/06/04 14:00:26;;;;;;;19.00;5.25;;;;;;;;;;4931130;28;20035;-79
2021/06/04 14:03:12;;;;;;;18.10;5.10;;;;;;;;;;4924097;28;20046;-79
2021/06/04 14:05:41;;;;;;;;;;;;;;;;;;4929412;28;20031;-77
2021/06/04 14:08:32;;;;;;;18.55;5.53;;;;;;;;;;4939772;28;20352;-78
2021/06/04 14:11:23;;;;;;;19.88;5.95;;;;;;;;;;4946510;28;20128;-79
2021/06/04 14:14:16;;;;;;;18.60;6.28;;;;;;;;;;4963525;28;20149;-79
2021/06/04 14:16:47;;;;;;;20.52;6.50;;;;;;;;;;4966334;28;20038;-79
2021/06/04 14:19:28;;;;;;;20.25;6.47;;;;;;;;;;4960371;28;20044;-81
2021/06/04 14:21:56;;;;;;;17.85;5.40;;;;;;;;;;4968662;28;20050;-85
2021/06/04 14:24:23;;;;;;;18.52;5.32;;;;;;;;;;4969636;28;20547;-80
2021/06/04 14:27:07;;;;;;;21.92;6.47;;;;;;;;;;4966059;28;20068;-79
2021/06/04 14:29:34;;;;;;;17.90;5.78;;;;;;;;;;4965184;28;20058;-80
2021/06/04 14:32:09;;;;;;;21.15;7.63;;;;;;;;;;4945010;28;20026;-80
2021/06/04 14:34:37;;;;;;;21.08;7.45;;;;;;;;;;4966331;28;20026;-79
2021/06/04 14:37:13;;;;;;;26.23;9.75;;;;;;;;;;4938724;28;20026;-80
2021/06/04 14:39:48;;;;;;;21.92;9.55;;;;;;;;;;4964853;28;20072;-79
2021/06/04 14:42:16;;;;;;;19.17;7.80;;;;;;;;;;4964958;28;20038;-80
2021/06/04 14:45:08;;;;;;;19.45;7.25;;;;;;;;;;4945146;28;20061;-79
2021/06/04 14:47:40;;;;;;;18.63;7.28;;;;;;;;;;4956015;28;20030;-80
2021/06/04 14:50:17;;;;;;;19.48;7.13;;;;;;;;;;4942400;28;20030;-79
2021/06/04 14:52:45;;;;;;;19.40;6.88;;;;;;;;;;4957391;28;20046;-79
2021/06/04 14:55:12;;;;;;;18.58;7.60;;;;;;;;;;4948931;28;20038;-81
2021/06/04 14:57:40;;;;;;;18.27;7.95;;;;;;;;;;4968068;28;20121;-80
2021/06/04 15:00:08;;;;;;;19.83;6.65;;;;;;;;;;4958820;28;20634;-80
2021/06/04 15:02:35;;;;;;;20.13;9.05;;;;;;;;;;4964587;28;20025;-80
2021/06/04 15:05:03;;;;;;;19.45;8.55;;;;;;;;;;4963843;28;20447;-80
2021/06/04 15:07:30;;;;;;;21.83;7.93;;;;;;;;;;4945251;28;20112;-79
2021/06/04 15:09:59;;;;;;;18.83;7.68;;;;;;;;;;4960476;28;20112;-79
2021/06/04 15:12:26;;;;;;;21.52;8.27;;;;;;;;;;4962254;28;20113;-81
2021/06/04 15:14:53;;;;;;;18.48;7.35;;;;;;;;;;4957560;28;20084;-80
2021/06/04 15:17:46;;;;;;;20.50;8.25;;;;;;;;;;4948325;28;20023;-79
2021/06/04 15:20:12;;;;;;;23.02;7.00;;;;;;;;;;4964024;28;20402;-80
2021/06/04 15:22:40;;;;;;;18.10;6.55;;;;;;;;;;4952828;28;20057;-81
2021/06/04 15:25:08;;;;;;;16.77;5.13;;;;;;;;;;4943406;28;20112;-84
2021/06/04 15:27:35;;;;;;;15.23;5.50;;;;;;;;;;4955889;28;20027;-84
2021/06/04 15:30:01;;;;;;;18.90;6.68;;;;;;;;;;4963356;28;20551;-81
2021/06/04 15:32:33;;;;;;;16.55;6.60;;;;;;;;;;4966484;28;20028;-81
2021/06/04 15:35:00;;;;;;;17.15;6.82;;;;;;;;;;4960971;28;20115;-80
2021/06/04 15:37:26;;;;;;;14.65;5.07;;;;;;;;;;4946677;28;20165;-83
2021/06/04 15:39:52;;;;;;;17.52;5.40;;;;;;;;;;4945975;28;20037;-81
2021/06/04 15:42:20;;;;;;;17.20;6.05;;;;;;;;;;4946183;28;20044;-82